createdAt,value
2023-04-21T00:00:16.918Z,10.85
2023-04-21T00:02:46.778Z,12.90
2023-04-21T00:05:14.524Z,12.50
2023-04-21T00:07:42.116Z,13.65
2023-04-21T00:10:11.271Z,11.27
2023-04-21T00:12:40.088Z,14.15
2023-04-21T00:15:08.238Z,16.52
2023-04-21T00:17:36.007Z,13.68
2023-04-21T00:20:05.137Z,13.30
2023-04-21T00:22:33.135Z,13.68
2023-04-21T00:25:01.087Z,12.57
2023-04-21T00:27:28.696Z,13.23
2023-04-21T00:29:56.193Z,14.48
2023-04-21T00:32:23.702Z,12.90
2023-04-21T00:34:51.396Z,15.65
2023-04-21T00:37:19.332Z,15.77
2023-04-21T00:39:47.087Z,16.27
2023-04-21T00:42:17.280Z,16.38
2023-04-21T00:44:45.066Z,16.45
2023-04-21T00:47:13.170Z,15.88
2023-04-21T00:49:40.772Z,19.25
2023-04-21T00:52:09.567Z,14.48
2023-04-21T00:54:37.509Z,16.38
2023-04-21T00:57:05.290Z,17.02
2023-04-21T00:59:32.775Z,15.82
2023-04-21T01:02:00.878Z,17.83
2023-04-21T01:04:29.341Z,17.25
2023-04-21T01:06:56.944Z,23.02
2023-04-21T01:09:24.618Z,19.35
2023-04-21T01:12:11.884Z,21.40
2023-04-21T01:14:40.994Z,19.33
2023-04-21T01:17:08.950Z,22.80
2023-04-21T01:19:40.345Z,22.42
2023-04-21T01:22:12.801Z,20.30
2023-04-21T01:24:41.588Z,21.50
2023-04-21T01:27:11.746Z,22.98
2023-04-21T01:29:41.081Z,22.92
2023-04-21T01:32:19.951Z,24.90
2023-04-21T01:34:48.235Z,25.98
2023-04-21T01:37:18.627Z,25.17
2023-04-21T01:39:54.419Z,21.98
2023-04-21T01:42:24.596Z,25.17
2023-04-21T01:44:53.905Z,20.02
2023-04-21T01:47:22.402Z,23.63
2023-04-21T01:49:50.249Z,25.88
2023-04-21T01:52:17.805Z,23.23
2023-04-21T01:54:45.286Z,22.48
2023-04-21T01:57:12.883Z,24.98
2023-04-21T01:59:40.651Z,26.73
2023-04-21T02:02:08.780Z,26.98
2023-04-21T02:04:37.122Z,23.02
2023-04-21T02:07:04.772Z,28.58
2023-04-21T02:09:32.348Z,27.08
2023-04-21T02:12:00.526Z,27.23
2023-04-21T02:14:28.192Z,27.13
2023-04-21T02:16:56.428Z,26.45
2023-04-21T02:19:24.761Z,27.10
2023-04-21T02:21:52.233Z,29.70
2023-04-21T02:24:19.709Z,27.67
2023-04-21T02:26:47.553Z,28.05
2023-04-21T02:29:15.007Z,30.00
2023-04-21T02:31:57.341Z,29.73
2023-04-21T02:34:28.596Z,27.48
2023-04-21T02:36:56.335Z,27.13
2023-04-21T02:39:23.852Z,30.55
2023-04-21T02:41:51.614Z,31.08
2023-04-21T02:44:19.362Z,26.42
2023-04-21T02:46:46.988Z,28.15
2023-04-21T02:49:14.523Z,28.90
2023-04-21T02:51:42.065Z,27.73
2023-04-21T02:54:09.613Z,34.28
2023-04-21T02:56:37.268Z,26.55
2023-04-21T02:59:04.884Z,31.50
2023-04-21T03:01:32.488Z,30.73
2023-04-21T03:03:59.977Z,32.05
2023-04-21T03:06:28.525Z,29.15
2023-04-21T03:08:56.853Z,30.17
2023-04-21T03:11:24.608Z,29.42
2023-04-21T03:13:52.114Z,27.45
2023-04-21T03:16:19.994Z,31.33
2023-04-21T03:18:48.356Z,32.70
2023-04-21T03:21:16.034Z,34.20
2023-04-21T03:23:43.745Z,25.63
2023-04-21T03:26:11.481Z,29.92
2023-04-21T03:28:39.277Z,30.88
2023-04-21T03:31:06.714Z,30.77
2023-04-21T03:33:34.451Z,29.77
2023-04-21T03:36:02.254Z,34.10
2023-04-21T03:38:30.161Z,31.25
2023-04-21T03:40:57.697Z,31.23
2023-04-21T03:43:25.205Z,30.40
2023-04-21T03:45:52.707Z,30.83
2023-04-21T03:48:20.765Z,33.47
2023-04-21T03:50:48.637Z,30.05
2023-04-21T03:53:16.972Z,33.80
2023-04-21T03:55:44.442Z,30.15
2023-04-21T03:58:12.153Z,30.90
2023-04-21T04:00:39.606Z,35.20
2023-04-21T04:03:07.816Z,28.80
2023-04-21T04:05:39.011Z,32.30
2023-04-21T04:08:06.696Z,29.40
2023-04-21T04:10:34.138Z,29.05
2023-04-21T04:13:01.744Z,28.65
2023-04-21T04:15:29.272Z,31.10
2023-04-21T04:17:56.900Z,28.52
2023-04-21T04:20:24.898Z,30.65
2023-04-21T04:22:52.396Z,25.60
2023-04-21T04:25:19.969Z,31.25
2023-04-21T04:27:49.720Z,27.88
2023-04-21T04:30:17.263Z,28.50
2023-04-21T04:32:45.074Z,28.95
2023-04-21T04:35:13.748Z,28.25
2023-04-21T04:37:41.395Z,27.63
2023-04-21T04:40:10.973Z,26.25
2023-04-21T04:42:40.304Z,26.02
2023-04-21T04:45:09.399Z,25.83
2023-04-21T04:47:37.373Z,26.35
2023-04-21T04:50:06.043Z,30.48
2023-04-21T04:52:33.651Z,28.42
2023-04-21T04:55:01.198Z,25.65
2023-04-21T04:57:28.835Z,27.50
2023-04-21T04:59:56.584Z,29.13
2023-04-21T05:02:24.664Z,30.80
2023-04-21T05:04:52.575Z,26.33
2023-04-21T05:07:20.297Z,30.48
2023-04-21T05:09:47.832Z,30.83
2023-04-21T05:12:15.558Z,25.20
2023-04-21T05:14:43.004Z,29.80
2023-04-21T05:17:10.655Z,33.15
2023-04-21T05:19:38.341Z,26.05
2023-04-21T05:22:08.778Z,28.45
2023-04-21T05:24:36.552Z,31.05
2023-04-21T05:27:05.991Z,28.38
2023-04-21T05:29:34.449Z,30.90
2023-04-21T05:32:02.221Z,28.55
2023-04-21T05:34:30.111Z,27.13
2023-04-21T05:36:57.746Z,28.35
2023-04-21T05:39:25.396Z,30.27
2023-04-21T05:41:52.864Z,26.52
2023-04-21T05:44:20.822Z,24.73
2023-04-21T05:46:48.420Z,24.77
2023-04-21T05:49:15.998Z,23.88
2023-04-21T05:51:43.476Z,24.23
2023-04-21T05:54:11.179Z,22.23
2023-04-21T05:56:38.834Z,23.77
2023-04-21T05:59:07.190Z,20.02
2023-04-21T06:01:34.771Z,21.30
2023-04-21T06:04:03.462Z,20.50
2023-04-21T06:06:32.004Z,17.92
2023-04-21T06:08:59.795Z,18.30
2023-04-21T06:11:27.480Z,18.27
2023-04-21T06:13:58.472Z,18.30
2023-04-21T06:16:27.132Z,16.23
2023-04-21T06:18:54.714Z,18.65
2023-04-21T06:21:22.524Z,17.05
2023-04-21T06:23:50.434Z,16.63
2023-04-21T06:26:18.234Z,18.58
2023-04-21T06:28:46.683Z,15.95
2023-04-21T06:31:15.763Z,18.90
2023-04-21T06:33:43.848Z,18.38
2023-04-21T06:36:11.431Z,16.17
2023-04-21T06:38:41.710Z,18.95
2023-04-21T06:41:10.099Z,16.73
2023-04-21T06:43:38.152Z,15.85
2023-04-21T06:46:05.924Z,15.68
2023-04-21T06:48:33.444Z,18.38
2023-04-21T06:51:02.827Z,16.25
2023-04-21T06:53:30.354Z,16.27
2023-04-21T06:55:57.925Z,18.73
2023-04-21T06:58:25.673Z,17.20
2023-04-21T07:00:53.364Z,14.35
2023-04-21T07:03:21.357Z,15.20
2023-04-21T07:05:49.417Z,17.23
2023-04-21T07:08:16.928Z,13.02
2023-04-21T07:10:44.445Z,14.90
2023-04-21T07:13:11.911Z,14.45
2023-04-21T07:15:39.521Z,14.02
2023-04-21T07:18:07.119Z,15.85
2023-04-21T07:20:34.643Z,15.15
2023-04-21T07:23:02.191Z,13.05
2023-04-21T07:25:29.720Z,14.10
2023-04-21T07:27:57.268Z,15.77
2023-04-21T07:30:24.925Z,14.23
2023-04-21T07:32:52.562Z,16.10
2023-04-21T07:35:20.091Z,12.30
2023-04-21T07:37:47.675Z,12.02
2023-04-21T07:40:15.928Z,13.02
2023-04-21T07:42:43.630Z,12.10
2023-04-21T07:45:12.139Z,10.20
2023-04-21T07:47:39.740Z,11.88
2023-04-21T07:50:08.128Z,11.48
2023-04-21T07:52:35.680Z,10.20
2023-04-21T07:55:03.568Z,10.43
2023-04-21T07:57:33.997Z,9.70
2023-04-21T08:00:01.435Z,10.57
2023-04-21T08:02:29.160Z,9.43
2023-04-21T08:04:56.782Z,11.73
2023-04-21T08:07:24.631Z,12.63
2023-04-21T08:09:52.238Z,11.95
2023-04-21T08:12:19.713Z,9.63
2023-04-21T08:14:47.209Z,11.18
2023-04-21T08:17:14.750Z,10.43
2023-04-21T08:19:42.450Z,12.35
2023-04-21T08:22:10.484Z,10.45
2023-04-21T08:24:38.028Z,12.77
2023-04-21T08:27:05.521Z,9.52
2023-04-21T08:29:33.031Z,12.23
2023-04-21T08:32:00.644Z,9.50
2023-04-21T08:34:28.245Z,11.80
2023-04-21T08:36:56.122Z,9.40
2023-04-21T08:39:23.980Z,10.35
2023-04-21T08:41:52.683Z,12.60
2023-04-21T08:44:21.767Z,10.00
2023-04-21T08:46:52.867Z,8.98
2023-04-21T08:49:23.696Z,9.77
2023-04-21T08:51:51.563Z,10.75
2023-04-21T08:54:19.164Z,10.15
2023-04-21T08:56:48.501Z,10.43
2023-04-21T08:59:16.001Z,8.90
2023-04-21T09:02:16.357Z,9.65
2023-04-21T09:04:49.275Z,9.57
2023-04-21T09:07:37.752Z,10.98
2023-04-21T09:10:06.253Z,14.18
2023-04-21T09:12:33.840Z,9.43
2023-04-21T09:15:05.733Z,10.52
2023-04-21T09:17:34.012Z,8.68
2023-04-21T09:20:19.598Z,9.77
2023-04-21T09:22:49.964Z,10.40
2023-04-21T09:25:21.177Z,11.20
2023-04-21T09:27:49.192Z,11.90
2023-04-21T09:30:20.169Z,10.57
2023-04-21T09:32:47.760Z,10.25
2023-04-21T09:35:15.581Z,9.00
2023-04-21T09:37:46.026Z,10.52
2023-04-21T09:40:15.461Z,9.60
2023-04-21T09:42:44.677Z,10.45
2023-04-21T09:47:51.782Z,9.17
2023-04-21T09:50:41.879Z,8.43
2023-04-21T09:53:13.288Z,10.57
2023-04-21T09:55:43.568Z,8.85
2023-04-21T09:58:16.539Z,9.43
2023-04-21T10:00:44.591Z,8.68
2023-04-21T10:03:14.223Z,9.90
2023-04-21T10:05:43.040Z,11.77
2023-04-21T10:08:12.220Z,10.85
2023-04-21T10:10:40.593Z,9.93
2023-04-21T10:13:14.763Z,13.48
2023-04-21T10:15:42.863Z,9.98
2023-04-21T10:18:16.200Z,8.65
2023-04-21T10:21:07.768Z,10.35
2023-04-21T10:23:38.110Z,10.18
2023-04-21T10:26:19.818Z,10.70
2023-04-21T10:28:56.660Z,8.25
2023-04-21T10:31:35.573Z,8.65
2023-04-21T10:34:08.711Z,13.15
2023-04-21T10:36:42.929Z,10.55
2023-04-21T10:39:15.791Z,9.45
2023-04-21T10:41:46.637Z,8.90
2023-04-21T10:44:16.476Z,11.77
2023-04-21T10:46:48.826Z,4.85
2023-04-21T10:49:32.856Z,10.65
2023-04-21T10:52:00.514Z,10.57
2023-04-21T10:54:42.351Z,7.05
2023-04-21T10:57:12.242Z,7.10
2023-04-21T10:59:40.541Z,9.13
2023-04-21T11:02:09.191Z,8.82
2023-04-21T11:04:37.480Z,8.77
2023-04-21T11:07:12.964Z,7.80
2023-04-21T11:09:41.791Z,7.72
2023-04-21T11:12:11.614Z,7.55
2023-04-21T11:14:41.527Z,9.35
2023-04-21T11:17:13.955Z,6.90
2023-04-21T11:19:42.553Z,6.78
2023-04-21T11:22:10.016Z,6.32
2023-04-21T11:24:37.671Z,6.20
2023-04-21T11:27:08.790Z,7.65
2023-04-21T11:29:36.286Z,7.22
2023-04-21T11:32:07.427Z,8.80
2023-04-21T11:34:37.727Z,6.80
2023-04-21T11:37:08.149Z,8.02
2023-04-21T11:39:35.712Z,6.65
2023-04-21T11:42:03.387Z,7.03
2023-04-21T11:44:37.761Z,8.05
2023-04-21T11:47:23.051Z,9.05
2023-04-21T11:50:02.149Z,10.48
2023-04-21T11:52:34.520Z,9.90
2023-04-21T11:55:15.523Z,7.95
2023-04-21T11:57:43.243Z,6.78
2023-04-21T12:00:13.515Z,7.25
2023-04-21T12:02:41.431Z,7.13
2023-04-21T12:05:12.960Z,5.97
2023-04-21T12:07:52.074Z,5.82
2023-04-21T12:10:21.202Z,9.23
2023-04-21T12:12:49.101Z,9.85
2023-04-21T12:15:22.954Z,10.50
2023-04-21T12:17:52.446Z,10.68
2023-04-21T12:20:22.165Z,9.80
2023-04-21T12:22:50.161Z,9.57
2023-04-21T12:25:17.868Z,6.18
2023-04-21T12:27:49.641Z,8.15
2023-04-21T12:30:17.397Z,8.13
2023-04-21T12:32:44.976Z,6.75
2023-04-21T12:35:12.614Z,6.65
2023-04-21T12:37:40.273Z,6.07
2023-04-21T12:40:08.590Z,5.88
2023-04-21T12:42:38.174Z,5.72
2023-04-21T12:45:06.990Z,4.85
2023-04-21T12:47:35.630Z,6.13
2023-04-21T12:50:03.792Z,4.93
2023-04-21T12:52:31.344Z,7.70
2023-04-21T12:54:58.977Z,4.40
2023-04-21T12:57:27.077Z,4.38
2023-04-21T12:59:55.246Z,4.22
2023-04-21T13:02:23.003Z,7.30
2023-04-21T13:04:50.717Z,4.35
2023-04-21T13:07:21.411Z,6.07
2023-04-21T13:09:48.992Z,4.72
2023-04-21T13:12:17.469Z,5.32
2023-04-21T13:14:44.957Z,4.38
2023-04-21T13:17:13.116Z,4.78
2023-04-21T13:19:41.092Z,4.80
2023-04-21T13:22:08.606Z,4.45
2023-04-21T13:24:36.046Z,6.50
2023-04-21T13:27:03.683Z,4.35
2023-04-21T13:29:34.210Z,4.72
2023-04-21T13:32:06.665Z,6.25
2023-04-21T13:34:34.576Z,4.43
2023-04-21T13:37:02.517Z,4.85
2023-04-21T13:39:30.478Z,4.28
2023-04-21T13:41:58.484Z,5.68
2023-04-21T13:44:26.153Z,6.80
2023-04-21T13:46:54.228Z,4.32
2023-04-21T13:49:21.827Z,4.65
2023-04-21T13:51:49.367Z,4.53
2023-04-21T13:54:17.147Z,2.88
2023-04-21T13:56:44.793Z,4.30
2023-04-21T13:59:14.943Z,4.35
2023-04-21T14:01:42.681Z,4.40
2023-04-21T14:04:10.647Z,4.03
2023-04-21T14:06:38.645Z,5.00
2023-04-21T14:09:06.623Z,4.05
2023-04-21T14:11:34.185Z,4.65
2023-04-21T14:14:09.565Z,4.45
2023-04-21T14:16:38.544Z,4.90
2023-04-21T14:19:06.876Z,3.80
2023-04-21T14:21:34.907Z,7.65
2023-04-21T14:24:02.421Z,6.28
2023-04-21T14:26:30.214Z,6.15
2023-04-21T14:28:58.910Z,7.28
2023-04-21T14:31:26.531Z,7.22
2023-04-21T14:33:54.414Z,5.70
2023-04-21T14:36:22.021Z,6.03
2023-04-21T14:38:50.666Z,4.35
2023-04-21T14:41:18.387Z,5.55
2023-04-21T14:43:47.587Z,5.45
2023-04-21T14:46:16.603Z,5.47
2023-04-21T14:48:44.964Z,6.82
2023-04-21T14:51:12.646Z,5.10
2023-04-21T14:53:40.845Z,6.80
2023-04-21T14:56:08.662Z,7.40
2023-04-21T14:58:36.170Z,4.18
2023-04-21T15:01:03.873Z,4.22
2023-04-21T15:03:32.123Z,7.78
2023-04-21T15:05:59.717Z,4.20
2023-04-21T15:08:27.780Z,3.92
2023-04-21T15:10:56.484Z,4.30
2023-04-21T15:13:24.234Z,5.50
2023-04-21T15:15:52.266Z,4.60
2023-04-21T15:18:21.211Z,4.68
2023-04-21T15:20:48.748Z,5.78
2023-04-21T15:23:16.709Z,5.80
2023-04-21T15:25:44.264Z,5.70
2023-04-21T15:28:13.132Z,4.43
2023-04-21T15:30:40.784Z,5.28
2023-04-21T15:33:08.464Z,4.68
2023-04-21T15:35:36.503Z,5.63
2023-04-21T15:38:04.684Z,5.32
2023-04-21T15:40:32.413Z,5.25
2023-04-21T15:42:59.915Z,4.90
2023-04-21T15:45:27.385Z,4.45
2023-04-21T15:47:55.341Z,4.18
2023-04-21T15:50:22.925Z,5.10
2023-04-21T15:52:50.469Z,5.40
2023-04-21T15:55:18.975Z,5.00
2023-04-21T15:57:46.442Z,3.78
2023-04-21T16:00:14.809Z,3.80
2023-04-21T16:02:42.712Z,5.15
2023-04-21T16:05:10.469Z,5.28
2023-04-21T16:07:38.036Z,4.45
2023-04-21T16:10:06.885Z,4.10
2023-04-21T16:12:34.635Z,6.55
2023-04-21T16:15:16.022Z,2.53
2023-04-21T16:17:48.959Z,2.55
2023-04-21T16:20:16.614Z,1.80
2023-04-21T16:22:44.236Z,4.15
2023-04-21T16:25:17.319Z,4.07
2023-04-21T16:27:45.866Z,1.58
2023-04-21T16:30:13.498Z,2.25
2023-04-21T16:32:41.138Z,3.00
2023-04-21T16:35:09.101Z,2.17
2023-04-21T16:37:38.479Z,1.58
2023-04-21T16:40:07.869Z,3.03
2023-04-21T16:42:36.281Z,1.30
2023-04-21T16:45:05.141Z,1.60
2023-04-21T16:47:38.680Z,2.95
2023-04-21T16:50:08.897Z,1.77
2023-04-21T16:52:36.671Z,1.17
2023-04-21T16:55:04.303Z,1.23
2023-04-21T16:57:32.870Z,0.98
2023-04-21T17:00:01.229Z,0.95
2023-04-21T17:02:29.800Z,1.75
2023-04-21T17:04:57.546Z,1.40
2023-04-21T17:07:25.050Z,2.33
2023-04-21T17:09:52.658Z,2.08
2023-04-21T17:12:20.237Z,2.05
2023-04-21T17:14:48.700Z,2.17
2023-04-21T17:17:16.942Z,2.25
2023-04-21T17:19:44.581Z,1.90
2023-04-21T17:22:12.116Z,1.10
2023-04-21T17:24:51.588Z,2.25
2023-04-21T17:27:21.330Z,0.98
2023-04-21T17:29:49.214Z,1.35
2023-04-21T17:32:16.977Z,0.82
2023-04-21T17:34:44.673Z,1.60
2023-04-21T17:37:12.221Z,1.58
2023-04-21T17:39:39.760Z,1.95
2023-04-21T17:42:07.527Z,1.52
2023-04-21T17:44:35.680Z,1.58
2023-04-21T17:47:08.346Z,1.15
2023-04-21T17:49:37.063Z,1.57
2023-04-21T17:52:06.060Z,1.20
2023-04-21T17:54:33.654Z,1.73
2023-04-21T17:57:02.362Z,1.20
2023-04-21T17:59:30.485Z,1.85
2023-04-21T18:01:59.176Z,2.65
2023-04-21T18:04:28.004Z,2.25
2023-04-21T18:06:55.857Z,1.48
2023-04-21T18:09:23.848Z,1.40
2023-04-21T18:11:52.384Z,1.63
2023-04-21T18:14:20.894Z,2.47
2023-04-21T18:16:48.733Z,1.70
2023-04-21T18:19:18.502Z,1.83
2023-04-21T18:21:46.104Z,3.88
2023-04-21T18:24:13.599Z,1.30
2023-04-21T18:26:41.281Z,2.15
2023-04-21T18:29:08.798Z,3.72
2023-04-21T18:31:36.437Z,4.13
2023-04-21T18:34:03.992Z,7.63
2023-04-21T18:36:33.711Z,6.63
2023-04-21T18:39:02.058Z,9.30
2023-04-21T18:41:29.726Z,6.95
2023-04-21T18:43:57.271Z,8.60
2023-04-21T18:46:24.827Z,6.72
2023-04-21T18:48:53.508Z,7.43
2023-04-21T18:51:21.052Z,5.32
2023-04-21T18:53:48.575Z,5.60
2023-04-21T18:56:16.273Z,7.22
2023-04-21T18:58:43.808Z,4.47
2023-04-21T19:01:11.639Z,4.60
2023-04-21T19:03:39.349Z,6.60
2023-04-21T19:06:06.958Z,4.45
2023-04-21T19:08:41.999Z,5.18
2023-04-21T19:11:15.969Z,5.57
2023-04-21T19:13:43.654Z,6.88
2023-04-21T19:16:12.378Z,6.05
2023-04-21T19:18:40.250Z,8.15
2023-04-21T19:21:13.136Z,6.82
2023-04-21T19:23:41.986Z,5.75
2023-04-21T19:26:12.026Z,7.32
2023-04-21T19:28:40.658Z,4.80
2023-04-21T19:31:08.973Z,5.70
2023-04-21T19:33:36.564Z,8.75
2023-04-21T19:36:04.355Z,6.95
2023-04-21T19:38:32.489Z,7.15
2023-04-21T19:41:00.074Z,6.32
2023-04-21T19:43:27.714Z,6.05
2023-04-21T19:45:55.356Z,5.72
2023-04-21T19:48:23.251Z,6.22
2023-04-21T19:50:51.165Z,7.47
2023-04-21T19:53:18.716Z,6.63
2023-04-21T19:55:47.164Z,6.88
2023-04-21T19:58:19.781Z,7.45
2023-04-21T20:00:52.659Z,5.95
2023-04-21T20:03:20.717Z,7.97
2023-04-21T20:05:50.530Z,5.93
2023-04-21T20:08:18.150Z,7.90
2023-04-21T20:10:45.682Z,5.18
2023-04-21T20:13:13.929Z,6.65
2023-04-21T20:15:42.221Z,5.00
2023-04-21T20:18:09.850Z,5.28
2023-04-21T20:20:37.602Z,5.75
2023-04-21T20:23:06.069Z,4.70
2023-04-21T20:25:33.907Z,5.28
2023-04-21T20:28:01.750Z,5.38
2023-04-21T20:30:29.246Z,5.82
2023-04-21T20:32:56.744Z,4.82
2023-04-21T20:35:24.239Z,5.82
2023-04-21T20:37:53.657Z,4.68
2023-04-21T20:40:21.822Z,8.73
2023-04-21T20:42:49.552Z,5.72
2023-04-21T20:45:17.540Z,6.97
2023-04-21T20:47:45.067Z,5.45
2023-04-21T20:50:12.773Z,6.03
2023-04-21T20:52:40.358Z,5.88
2023-04-21T20:55:08.173Z,8.70
2023-04-21T20:57:35.875Z,6.53
2023-04-21T21:00:06.092Z,6.68
2023-04-21T21:02:33.671Z,8.68
2023-04-21T21:05:01.385Z,7.85
2023-04-21T21:07:29.058Z,7.72
2023-04-21T21:09:56.724Z,7.93
2023-04-21T21:12:24.393Z,7.97
2023-04-21T21:14:51.921Z,8.13
2023-04-21T21:17:19.473Z,5.70
2023-04-21T21:19:46.940Z,9.05
2023-04-21T21:22:14.612Z,7.25
2023-04-21T21:24:42.113Z,7.07
2023-04-21T21:27:09.681Z,7.80
2023-04-21T21:29:37.674Z,6.85
2023-04-21T21:32:05.435Z,7.38
2023-04-21T21:34:33.161Z,6.95
2023-04-21T21:37:00.978Z,7.95
2023-04-21T21:39:28.518Z,8.35
2023-04-21T21:41:57.148Z,7.97
2023-04-21T21:44:24.711Z,6.30
2023-04-21T21:46:52.328Z,7.10
2023-04-21T21:49:19.898Z,5.90
2023-04-21T21:51:47.401Z,6.28
2023-04-21T21:54:14.968Z,7.13
2023-04-21T21:56:42.913Z,7.82
2023-04-21T21:59:10.618Z,8.43
2023-04-21T22:01:38.246Z,6.47
2023-04-21T22:04:06.435Z,7.40
2023-04-21T22:06:35.207Z,7.57
2023-04-21T22:09:02.986Z,10.77
2023-04-21T22:11:31.161Z,7.40
2023-04-21T22:14:05.154Z,9.18
2023-04-21T22:16:43.046Z,8.45
2023-04-21T22:19:10.860Z,6.85
2023-04-21T22:21:38.715Z,7.00
2023-04-21T22:24:06.300Z,6.30
2023-04-21T22:26:33.819Z,6.70
2023-04-21T22:29:01.375Z,6.43
2023-04-21T22:31:29.059Z,9.98
2023-04-21T22:33:56.826Z,6.45
2023-04-21T22:36:24.645Z,7.97
2023-04-21T22:38:52.422Z,7.38
2023-04-21T22:41:21.128Z,8.95
2023-04-21T22:43:48.797Z,8.45
2023-04-21T22:46:16.429Z,6.72
2023-04-21T22:48:46.763Z,8.68
2023-04-21T22:51:21.276Z,5.65
2023-04-21T22:53:48.746Z,7.13
2023-04-21T22:56:16.664Z,9.02
2023-04-21T22:58:44.209Z,8.25
2023-04-21T23:01:11.995Z,8.02
2023-04-21T23:03:39.693Z,7.47
2023-04-21T23:06:08.145Z,8.82
2023-04-21T23:08:36.882Z,8.07
2023-04-21T23:11:04.534Z,8.52
2023-04-21T23:13:35.800Z,9.95
2023-04-21T23:16:03.885Z,10.27
2023-04-21T23:18:32.121Z,10.13
2023-04-21T23:20:59.970Z,8.50
2023-04-21T23:23:27.648Z,9.80
2023-04-21T23:25:55.127Z,10.18
2023-04-21T23:28:24.125Z,8.90
2023-04-21T23:30:51.817Z,8.52
2023-04-21T23:33:19.366Z,9.13
2023-04-21T23:35:47.409Z,9.48
2023-04-21T23:38:15.166Z,7.57
2023-04-21T23:40:42.662Z,7.82
2023-04-21T23:43:10.279Z,10.35
2023-04-21T23:45:37.877Z,6.75
2023-04-21T23:48:05.533Z,7.40
2023-04-21T23:50:33.509Z,6.93
2023-04-21T23:53:01.239Z,9.60
2023-04-21T23:55:29.852Z,10.82
2023-04-21T23:57:57.404Z,7.55
